Natchez, MS (39120)

8:04 AM CST on January 18, 2017 (GMT -0600)
Woodland Heights | | Change Station
Active Advisory: Marine Fog Advisory

Elev 200 ft 31.55 °N, 91.39 °W | Updated 3 seconds ago

Overcast
Overcast
62.1 °F
Feels Like 62.1 °F
N
0.0
Wind Variable Wind from West
Gusts 0.0 mph

Today
High -- | Low -- °F
--% Chance of Precip.
Yesterday
High -- | Low -- °F
Precip. -- in
Pressure 30.14 in
Visibility 1.5 miles
Clouds Overcast 300 ft
Dew Point 62 °F
Humidity 98%
Rainfall 0.00 in
Snow Depth Not available.
7:04 AM 5:27 PM
Waning Gibbous, 63% visible
METAR KHEZ 181355Z AUTO 00000KT 1 1/2SM OVC003 16/14 A3014 RMK AO1
Pressure 30.14 in
Visibility 1.5 miles
Clouds Overcast 300 ft
Dew Point 62 °F
Humidity 98%
Rainfall 0.00 in
Snow Depth Not available.
7:04 AM 5:27 PM
Waning Gibbous, 63% visible
METAR KHEZ 181355Z AUTO 00000KT 1 1/2SM OVC003 16/14 A3014 RMK AO1

Get Your Daily Forecast Email!

Thanks for signing up!

Be on the lookout for a verification email in your inbox.

You'll start receiving the daily forecast at 8 AM.

×

10-Day Weather Forecast

Almanac

Astronomy

Jan. 18, 2017 Rise Set
Actual Time
Civil Twilight
Nautical Twilight
Astronomical Twilight
Moon
Length of Visible Light
Length of Day
Tomorrow will be .
, % of the Moon is Illuminated

Today's Extremes

State Highs State Lows

Community

WunderPhotos

Upload Photos

1,962,540 photos uploaded!

WunderBlog® & News

Nearby

Air Quality

  Air Quality AQ Index Pollutant
Not available.

Snow Depth

Station Depth Elevation

Earthquake Activity

City Distance Mag. Time & Date
Minimum magnitude displayed is 2.5.

Coastal Water Temperatures

Place Temperature

Stations

Nearby Weather Stations

Station Location Temp. Windchill Dew Point Humidity Wind Precip. Elev Updated Type
                   

Watches & Warnings

Marine Fog Advisory
Issued: 3:43 AM CST Jan. 18, 2017 – National Weather Service

... Dense fog advisory remains in effect until 11 am CST this
morning...

* visibility... one mile or less.

Precautionary/preparedness actions...

A dense fog advisory means visibilities will frequently be
reduced to less than one mile. Inexperienced mariners...
especially those operating smaller vessels should avoid
navigating in these conditions.